createdAt,value
2017-10-17T00:02:11.743Z,97.20
2017-10-17T00:04:37.768Z,97.40
2017-10-17T00:07:03.792Z,97.30
2017-10-17T00:09:29.855Z,97.30
2017-10-17T00:11:55.891Z,97.40
2017-10-17T00:14:21.923Z,97.50
2017-10-17T00:16:48.711Z,97.50
2017-10-17T00:19:14.735Z,97.50
2017-10-17T00:21:40.750Z,97.40
2017-10-17T00:24:06.788Z,97.20
2017-10-17T00:26:32.912Z,97.30
2017-10-17T00:28:58.996Z,96.60
2017-10-17T00:31:25.029Z,96.60
2017-10-17T00:33:51.068Z,96.30
2017-10-17T00:36:17.090Z,96.30
2017-10-17T00:38:44.135Z,96.60
2017-10-17T00:41:10.191Z,96.80
2017-10-17T00:43:36.222Z,96.80
2017-10-17T00:46:05.120Z,96.90
2017-10-17T00:48:32.096Z,97.10
2017-10-17T00:50:59.072Z,97.10
2017-10-17T00:53:25.102Z,96.40
2017-10-17T00:55:51.398Z,96.40
2017-10-17T00:58:24.400Z,95.80
2017-10-17T01:00:50.602Z,95.90
2017-10-17T01:03:16.639Z,95.80
2017-10-17T01:05:42.682Z,95.60
2017-10-17T01:08:08.735Z,95.60
2017-10-17T01:10:35.536Z,96.30
2017-10-17T01:13:01.559Z,96.30
2017-10-17T01:15:27.608Z,96.60
2017-10-17T01:17:53.628Z,96.50
2017-10-17T01:20:20.631Z,96.30
2017-10-17T01:22:46.663Z,96.40
2017-10-17T01:25:12.700Z,96.20
2017-10-17T01:27:38.751Z,95.40
2017-10-17T01:30:05.560Z,95.60
2017-10-17T01:32:31.587Z,95.60
2017-10-17T01:34:57.630Z,95.60
2017-10-17T01:37:24.399Z,94.70
2017-10-17T01:39:55.278Z,94.60
2017-10-17T01:42:22.383Z,94.60
2017-10-17T01:44:52.252Z,94.40
2017-10-17T01:47:18.277Z,94.30
2017-10-17T01:49:45.120Z,93.90
2017-10-17T01:52:14.906Z,93.30
2017-10-17T01:54:51.748Z,93.30
2017-10-17T01:57:17.982Z,93.20
2017-10-17T01:59:43.996Z,93.20
2017-10-17T02:02:10.011Z,93.00
2017-10-17T02:04:36.235Z,93.00
2017-10-17T02:07:02.266Z,92.90
2017-10-17T02:12:22.154Z,92.70
2017-10-17T02:14:48.197Z,92.70
2017-10-17T02:17:14.263Z,92.60
2017-10-17T02:19:40.618Z,92.60
2017-10-17T02:22:09.576Z,92.30
2017-10-17T02:24:44.527Z,92.30
2017-10-17T02:27:10.569Z,92.30
2017-10-17T02:29:42.606Z,92.40
2017-10-17T02:32:09.395Z,92.60
2017-10-17T02:34:39.255Z,92.60
2017-10-17T02:37:06.022Z,92.50
2017-10-17T02:39:32.074Z,92.50
2017-10-17T02:41:59.918Z,92.50
2017-10-17T02:44:25.940Z,92.40
2017-10-17T02:46:53.983Z,92.60
2017-10-17T02:49:30.786Z,92.40
2017-10-17T02:51:56.851Z,92.50
2017-10-17T02:54:23.614Z,92.40
2017-10-17T02:56:50.375Z,92.50
2017-10-17T02:59:21.158Z,92.50
2017-10-17T03:01:47.212Z,92.40
2017-10-17T03:04:33.142Z,92.30
2017-10-17T03:06:59.163Z,92.30
2017-10-17T03:09:25.179Z,92.40
2017-10-17T03:11:51.271Z,92.30
2017-10-17T03:14:23.191Z,92.30
2017-10-17T03:16:49.215Z,92.40
2017-10-17T03:19:18.379Z,92.50
2017-10-17T03:21:44.402Z,92.30
2017-10-17T03:24:12.235Z,92.40
2017-10-17T03:26:38.287Z,92.30
2017-10-17T03:29:04.299Z,92.20
2017-10-17T03:31:30.323Z,92.10
2017-10-17T03:33:58.087Z,92.20
2017-10-17T03:36:26.914Z,92.30
2017-10-17T03:38:52.938Z,92.30
2017-10-17T03:41:20.950Z,92.40
2017-10-17T03:43:46.979Z,92.30
2017-10-17T03:46:22.983Z,92.40
2017-10-17T03:48:49.002Z,92.40
2017-10-17T03:51:15.026Z,92.60
2017-10-17T03:53:47.075Z,92.60
2017-10-17T03:56:19.052Z,92.60
2017-10-17T03:58:45.091Z,92.70
2017-10-17T04:01:11.146Z,92.80
2017-10-17T04:03:40.099Z,92.80
2017-10-17T04:06:25.705Z,92.90
2017-10-17T04:08:51.726Z,92.90
2017-10-17T04:11:21.699Z,92.70
2017-10-17T04:13:53.503Z,92.90
2017-10-17T04:16:22.349Z,93.00
2017-10-17T04:19:00.351Z,92.90
2017-10-17T04:21:26.366Z,93.00
2017-10-17T04:24:02.574Z,93.10
2017-10-17T04:26:29.522Z,93.30
2017-10-17T04:28:58.570Z,93.50
2017-10-17T04:31:41.591Z,93.40
2017-10-17T04:37:08.876Z,93.50
2017-10-17T04:39:34.973Z,93.60
2017-10-17T04:48:15.207Z,93.80
2017-10-17T04:50:45.990Z,93.80
2017-10-17T04:56:26.295Z,94.00
2017-10-17T04:58:59.222Z,94.20
2017-10-17T05:01:25.244Z,94.20
2017-10-17T05:04:00.523Z,94.20
2017-10-17T05:06:27.283Z,94.20
2017-10-17T05:08:58.383Z,94.20
2017-10-17T05:11:24.458Z,94.40
2017-10-17T05:17:08.087Z,94.30
2017-10-17T05:22:34.664Z,94.20
2017-10-17T05:25:08.639Z,94.20
2017-10-17T05:30:41.659Z,94.50
2017-10-17T05:33:15.743Z,94.20
2017-10-17T05:35:42.513Z,94.10
2017-10-17T05:38:08.583Z,94.20
2017-10-17T05:40:34.612Z,94.20
2017-10-17T05:43:00.950Z,94.20
2017-10-17T05:45:26.979Z,94.20
2017-10-17T05:47:58.538Z,94.10
2017-10-17T05:50:34.344Z,94.10
2017-10-17T05:53:00.370Z,94.10
2017-10-17T05:55:26.383Z,94.00
2017-10-17T05:57:52.414Z,93.40
2017-10-17T06:00:18.443Z,93.40
2017-10-17T06:02:44.835Z,93.40
2017-10-17T06:05:10.858Z,93.40
2017-10-17T06:07:36.881Z,93.40
2017-10-17T06:10:03.112Z,93.40
2017-10-17T06:12:29.135Z,93.60
2017-10-17T06:14:55.163Z,93.60
2017-10-17T06:17:21.211Z,93.70
2017-10-17T06:19:47.219Z,93.50
2017-10-17T06:22:13.246Z,93.40
2017-10-17T06:24:39.590Z,93.10
2017-10-17T06:27:05.602Z,93.20
2017-10-17T06:29:31.611Z,93.20
2017-10-17T06:31:58.017Z,93.30
2017-10-17T06:34:24.037Z,93.40
2017-10-17T06:36:50.057Z,93.30
2017-10-17T06:39:16.103Z,93.20
2017-10-17T06:42:24.137Z,91.70
2017-10-17T06:44:50.175Z,91.80
2017-10-17T06:47:16.946Z,91.70
2017-10-17T06:49:42.986Z,91.70
2017-10-17T06:52:09.377Z,90.90
2017-10-17T06:54:43.147Z,91.00
2017-10-17T06:57:09.235Z,91.00
2017-10-17T06:59:35.327Z,90.90
2017-10-17T07:02:02.087Z,91.40
2017-10-17T07:04:28.169Z,91.40
2017-10-17T07:06:54.953Z,92.30
2017-10-17T07:09:20.983Z,91.90
2017-10-17T07:11:47.262Z,92.00
2017-10-17T07:14:13.282Z,92.10
2017-10-17T07:16:39.307Z,92.10
2017-10-17T07:19:06.115Z,91.90
2017-10-17T07:21:32.123Z,91.90
2017-10-17T07:24:05.603Z,92.00
2017-10-17T07:26:31.641Z,92.30
2017-10-17T07:28:57.660Z,92.40
2017-10-17T07:31:23.696Z,92.40
2017-10-17T07:33:49.735Z,92.20
2017-10-17T07:36:15.939Z,92.30
2017-10-17T07:38:42.239Z,92.00
2017-10-17T07:41:08.262Z,92.10
2017-10-17T07:43:34.299Z,91.70
2017-10-17T07:46:00.471Z,91.30
2017-10-17T07:48:26.502Z,90.70
2017-10-17T07:50:53.267Z,90.50
2017-10-17T07:53:19.567Z,90.50
2017-10-17T07:55:46.346Z,90.50
2017-10-17T08:00:44.539Z,90.60
2017-10-17T08:03:10.559Z,90.50
2017-10-17T08:05:36.602Z,90.50
2017-10-17T08:08:02.624Z,90.60
2017-10-17T08:10:47.527Z,90.90
2017-10-17T08:13:14.586Z,91.20
2017-10-17T08:15:40.618Z,91.10
2017-10-17T08:18:06.639Z,90.80
2017-10-17T08:20:32.663Z,90.70
2017-10-17T08:22:58.683Z,90.60
2017-10-17T08:25:24.756Z,90.60
2017-10-17T08:27:50.774Z,90.50
2017-10-17T08:30:16.802Z,90.70
2017-10-17T08:35:15.226Z,90.60
2017-10-17T08:37:41.308Z,90.70
2017-10-17T08:40:07.342Z,90.70
2017-10-17T08:42:33.391Z,90.70
2017-10-17T08:45:07.363Z,90.60
2017-10-17T08:47:33.411Z,90.60
2017-10-17T08:50:00.194Z,90.80
2017-10-17T08:52:26.275Z,90.80
2017-10-17T08:54:53.106Z,91.00
2017-10-17T08:57:19.883Z,90.70
2017-10-17T08:59:45.959Z,90.70
2017-10-17T09:02:12.001Z,90.30
2017-10-17T09:04:38.767Z,89.70
2017-10-17T09:07:04.800Z,89.70
2017-10-17T09:09:30.830Z,89.70
2017-10-17T09:11:56.875Z,87.80
2017-10-17T09:14:22.939Z,87.00
2017-10-17T09:16:48.963Z,86.80
2017-10-17T09:19:14.993Z,86.30
2017-10-17T09:21:41.223Z,85.80
2017-10-17T09:24:07.259Z,85.20
2017-10-17T09:26:33.284Z,85.50
2017-10-17T09:28:59.331Z,85.40
2017-10-17T09:31:25.378Z,85.30
2017-10-17T09:33:52.150Z,85.00
2017-10-17T09:36:18.199Z,85.00
2017-10-17T09:38:44.250Z,86.40
2017-10-17T09:41:11.015Z,85.70
2017-10-17T09:43:37.035Z,85.70
2017-10-17T09:46:03.852Z,83.70
2017-10-17T09:48:29.874Z,83.70
2017-10-17T09:50:56.642Z,84.70
2017-10-17T09:53:22.674Z,84.70
2017-10-17T09:55:48.907Z,84.40
2017-10-17T09:58:14.929Z,85.00
2017-10-17T10:00:40.995Z,84.10
2017-10-17T10:03:07.271Z,83.90
2017-10-17T10:05:33.351Z,84.20
2017-10-17T10:07:59.395Z,83.50
2017-10-17T10:10:26.182Z,85.00
2017-10-17T10:12:52.215Z,85.00
2017-10-17T10:15:18.279Z,85.30
2017-10-17T10:17:45.063Z,85.60
2017-10-17T10:20:11.095Z,85.50
2017-10-17T10:22:37.186Z,85.20
2017-10-17T10:25:03.215Z,85.60
2017-10-17T10:27:29.227Z,85.40
2017-10-17T10:29:55.452Z,86.20
2017-10-17T10:32:21.470Z,86.30
2017-10-17T10:34:47.534Z,85.90
2017-10-17T10:37:13.578Z,85.90
2017-10-17T10:39:39.599Z,86.20
2017-10-17T10:42:05.643Z,85.60
2017-10-17T10:44:31.715Z,85.80
2017-10-17T10:46:57.739Z,85.60
2017-10-17T10:49:23.760Z,85.40
2017-10-17T10:51:50.104Z,86.00
2017-10-17T10:54:16.131Z,85.10
2017-10-17T10:56:42.199Z,84.50
2017-10-17T10:59:08.245Z,83.70
2017-10-17T11:01:34.276Z,84.30
2017-10-17T11:04:00.324Z,84.40
2017-10-17T11:06:26.636Z,84.20
2017-10-17T11:08:52.670Z,84.30
2017-10-17T11:11:18.714Z,82.60
2017-10-17T11:13:45.529Z,83.80
2017-10-17T11:16:11.550Z,83.80
2017-10-17T11:18:37.571Z,84.10
2017-10-17T11:21:03.842Z,84.00
2017-10-17T11:23:29.899Z,83.90
2017-10-17T11:25:55.923Z,83.40
2017-10-17T11:28:21.987Z,84.20
2017-10-17T11:30:48.771Z,84.50
2017-10-17T11:33:14.811Z,84.40
2017-10-17T11:35:42.063Z,83.10
2017-10-17T11:38:08.094Z,83.40
2017-10-17T11:40:46.862Z,82.50
2017-10-17T11:43:25.244Z,82.90
2017-10-17T11:45:52.053Z,81.10
2017-10-17T11:48:19.571Z,82.00
2017-10-17T11:50:45.627Z,81.90
2017-10-17T11:53:11.704Z,81.70
2017-10-17T11:55:37.751Z,81.40
2017-10-17T11:58:03.790Z,80.80
2017-10-17T12:00:29.909Z,81.40
2017-10-17T12:02:55.920Z,81.20
2017-10-17T12:05:22.352Z,80.40
2017-10-17T12:07:48.388Z,80.40
2017-10-17T12:10:14.442Z,81.70
2017-10-17T12:12:41.725Z,80.00
2017-10-17T12:15:07.790Z,79.90
2017-10-17T12:17:33.822Z,79.70
2017-10-17T12:19:59.895Z,79.10
2017-10-17T12:22:25.936Z,79.80
2017-10-17T12:24:51.980Z,79.50
2017-10-17T12:27:18.063Z,79.80
2017-10-17T12:29:44.126Z,81.00
2017-10-17T12:32:10.167Z,79.40
2017-10-17T12:34:37.031Z,80.00
2017-10-17T12:37:03.083Z,79.30
2017-10-17T12:39:29.106Z,79.00
2017-10-17T12:41:55.151Z,78.90
2017-10-17T12:44:21.194Z,78.90
2017-10-17T12:46:47.257Z,78.00
2017-10-17T12:49:13.483Z,78.60
2017-10-17T12:51:39.500Z,78.40
2017-10-17T12:54:05.548Z,78.20
2017-10-17T12:56:31.586Z,78.00
2017-10-17T12:58:57.649Z,77.80
2017-10-17T13:01:24.416Z,78.10
2017-10-17T13:03:50.936Z,78.00
2017-10-17T13:06:16.974Z,78.90
2017-10-17T13:08:43.010Z,78.70
2017-10-17T13:11:09.063Z,78.70
2017-10-17T13:13:35.090Z,78.80
2017-10-17T13:16:02.169Z,79.40
2017-10-17T13:18:28.195Z,79.40
2017-10-17T13:20:54.235Z,78.50
2017-10-17T13:23:20.566Z,79.10
2017-10-17T13:25:46.611Z,79.30
2017-10-17T13:28:12.642Z,80.00
2017-10-17T13:30:38.863Z,79.80
2017-10-17T13:33:04.891Z,80.40
2017-10-17T13:35:30.949Z,79.80
2017-10-17T13:37:57.287Z,80.30
2017-10-17T13:40:23.304Z,79.80
2017-10-17T13:42:49.331Z,80.20
2017-10-17T13:45:15.411Z,80.50
2017-10-17T13:47:42.187Z,79.60
2017-10-17T13:50:08.213Z,79.60
2017-10-17T13:52:34.257Z,80.40
2017-10-17T13:55:00.305Z,80.50
2017-10-17T13:57:26.406Z,80.30
2017-10-17T13:59:52.464Z,80.60
2017-10-17T14:02:19.279Z,80.90
2017-10-17T14:04:45.363Z,80.90
2017-10-17T14:07:11.783Z,80.40
2017-10-17T14:09:37.846Z,80.70
2017-10-17T14:12:03.980Z,80.50
2017-10-17T14:14:30.067Z,81.00
2017-10-17T14:16:56.147Z,81.40
2017-10-17T14:19:22.202Z,80.40
2017-10-17T14:21:48.266Z,80.20
2017-10-17T14:24:14.378Z,80.80
2017-10-17T14:26:40.444Z,80.50
2017-10-17T14:29:07.278Z,81.20
2017-10-17T14:31:33.350Z,81.20
2017-10-17T14:33:59.413Z,80.90
2017-10-17T14:36:25.499Z,81.00
2017-10-17T14:38:51.615Z,80.90
2017-10-17T14:41:17.683Z,80.90
2017-10-17T14:43:43.762Z,81.80
2017-10-17T14:46:09.846Z,82.00
2017-10-17T14:48:36.687Z,81.50
2017-10-17T14:51:03.500Z,81.60
2017-10-17T14:53:29.953Z,81.40
2017-10-17T14:55:56.749Z,82.20
2017-10-17T14:58:22.819Z,82.10
2017-10-17T15:00:49.679Z,82.70
2017-10-17T15:03:15.740Z,82.50
2017-10-17T15:05:41.798Z,83.20
2017-10-17T15:08:07.898Z,83.60
2017-10-17T15:10:33.957Z,83.30
2017-10-17T15:13:00.786Z,84.00
2017-10-17T15:15:27.614Z,84.20
2017-10-17T15:17:53.690Z,84.20
2017-10-17T15:20:19.746Z,84.20
2017-10-17T15:22:45.797Z,84.30
2017-10-17T15:25:12.610Z,84.30
2017-10-17T15:27:38.970Z,84.30
2017-10-17T15:30:05.756Z,84.10
2017-10-17T15:32:31.846Z,84.10
2017-10-17T15:34:58.081Z,84.60
2017-10-17T15:37:24.186Z,84.60
2017-10-17T15:39:51.024Z,85.00
2017-10-17T15:42:17.875Z,85.10
2017-10-17T15:44:44.663Z,84.60
2017-10-17T15:47:10.703Z,84.60
2017-10-17T15:49:36.830Z,85.00
2017-10-17T15:52:02.894Z,85.10
2017-10-17T15:54:28.953Z,85.20
2017-10-17T15:56:55.070Z,85.10
2017-10-17T15:59:21.146Z,85.60
2017-10-17T16:01:47.978Z,85.30
2017-10-17T16:04:14.831Z,85.40
2017-10-17T16:06:41.651Z,84.90
2017-10-17T16:09:07.744Z,84.90
2017-10-17T16:11:34.114Z,85.20
2017-10-17T16:14:00.959Z,85.60
2017-10-17T16:16:27.749Z,85.70
2017-10-17T16:18:53.853Z,85.70
2017-10-17T16:21:19.933Z,85.70
2017-10-17T16:23:53.623Z,85.90
2017-10-17T16:26:19.687Z,85.80
2017-10-17T16:28:45.750Z,86.30
2017-10-17T16:31:11.874Z,86.20
2017-10-17T16:33:37.963Z,87.30
2017-10-17T16:36:04.026Z,86.70
2017-10-17T16:38:30.110Z,86.30
2017-10-17T16:40:56.162Z,86.70
2017-10-17T16:43:22.223Z,86.60
2017-10-17T16:45:49.033Z,87.30
2017-10-17T16:48:15.127Z,87.20
2017-10-17T16:50:41.245Z,86.70
2017-10-17T16:53:07.356Z,86.80
2017-10-17T16:55:33.418Z,86.70
2017-10-17T16:57:59.486Z,86.60
2017-10-17T17:00:26.330Z,87.20
2017-10-17T17:02:52.410Z,87.20
2017-10-17T17:05:18.529Z,87.30
2017-10-17T17:07:44.892Z,87.80
2017-10-17T17:10:11.786Z,87.50
2017-10-17T17:12:37.864Z,87.50
2017-10-17T17:15:04.742Z,87.90
2017-10-17T17:17:30.811Z,87.90
2017-10-17T17:19:56.870Z,87.90
2017-10-17T17:22:23.183Z,88.00
2017-10-17T17:24:49.266Z,87.80
2017-10-17T17:27:15.318Z,87.70
2017-10-17T17:29:42.358Z,88.40
2017-10-17T17:32:09.200Z,88.00
2017-10-17T17:34:35.992Z,88.20
2017-10-17T17:37:02.089Z,88.20
2017-10-17T17:39:28.189Z,88.60
2017-10-17T17:41:55.050Z,89.00
2017-10-17T17:44:21.150Z,88.90
2017-10-17T17:46:47.980Z,88.90
2017-10-17T17:49:14.097Z,88.90
2017-10-17T17:51:40.205Z,89.90
2017-10-17T17:54:06.561Z,89.70
2017-10-17T17:56:40.360Z,89.70
2017-10-17T17:59:06.798Z,89.50
2017-10-17T18:01:33.631Z,90.20
2017-10-17T18:04:00.442Z,89.90
2017-10-17T18:06:26.566Z,89.90
2017-10-17T18:08:52.630Z,90.00
2017-10-17T18:11:19.446Z,90.10
2017-10-17T18:13:47.202Z,90.10
2017-10-17T18:16:14.152Z,90.30
2017-10-17T18:18:41.691Z,90.30
2017-10-17T18:21:07.799Z,90.20
2017-10-17T18:23:33.891Z,90.30
2017-10-17T18:25:59.938Z,90.40
2017-10-17T18:28:26.031Z,90.40
2017-10-17T18:30:52.840Z,90.60
2017-10-17T18:33:18.947Z,90.60
2017-10-17T18:35:45.079Z,90.60
2017-10-17T18:38:11.219Z,90.70
2017-10-17T18:40:37.338Z,90.70
2017-10-17T18:43:03.715Z,91.10
2017-10-17T18:45:29.871Z,90.80
2017-10-17T18:47:56.349Z,90.80
2017-10-17T18:50:23.249Z,91.00
2017-10-17T18:52:49.374Z,91.00
2017-10-17T18:55:15.616Z,91.00
2017-10-17T18:57:41.831Z,91.00
2017-10-17T19:00:08.729Z,91.30
2017-10-17T19:02:34.887Z,91.40
2017-10-17T19:05:01.103Z,91.30
2017-10-17T19:07:27.204Z,91.30
2017-10-17T19:09:53.320Z,91.20
2017-10-17T19:12:19.502Z,91.30
2017-10-17T19:14:45.694Z,91.40
2017-10-17T19:17:11.782Z,91.50
2017-10-17T19:19:38.672Z,91.60
2017-10-17T19:22:04.812Z,91.60
2017-10-17T19:24:30.882Z,91.80
2017-10-17T19:26:57.005Z,91.80
2017-10-17T19:29:23.246Z,91.80
2017-10-17T19:31:49.449Z,92.00
2017-10-17T19:34:16.005Z,91.90
2017-10-17T19:36:42.098Z,91.90
2017-10-17T19:39:08.965Z,92.20
2017-10-17T19:41:35.270Z,92.20
2017-10-17T19:44:02.099Z,92.40
2017-10-17T19:46:28.179Z,92.30
2017-10-17T19:48:55.291Z,92.30
2017-10-17T19:51:21.388Z,92.30
2017-10-17T19:53:48.271Z,92.40
2017-10-17T19:56:14.339Z,92.40
2017-10-17T19:58:40.442Z,92.40
2017-10-17T20:01:06.594Z,92.50
2017-10-17T20:03:32.790Z,92.50
2017-10-17T20:05:58.873Z,92.70
2017-10-17T20:08:32.311Z,92.80
2017-10-17T20:10:58.403Z,92.80
2017-10-17T20:13:24.504Z,92.70
2017-10-17T20:15:51.306Z,92.80
2017-10-17T20:18:17.447Z,92.80
2017-10-17T20:20:43.795Z,92.90
2017-10-17T20:23:10.648Z,93.10
2017-10-17T20:25:36.743Z,93.10
2017-10-17T20:28:02.828Z,93.00
2017-10-17T20:30:28.902Z,93.40
2017-10-17T20:32:55.751Z,93.50
2017-10-17T20:35:22.612Z,93.10
2017-10-17T20:37:48.780Z,93.40
2017-10-17T20:40:14.845Z,93.50
2017-10-17T20:42:41.167Z,93.20
2017-10-17T20:45:08.021Z,93.20
2017-10-17T20:47:34.127Z,93.20
2017-10-17T20:50:00.943Z,93.30
2017-10-17T20:52:26.995Z,93.20
2017-10-17T20:54:53.106Z,93.40
2017-10-17T20:57:19.918Z,93.60
2017-10-17T20:59:46.023Z,93.50
2017-10-17T21:02:12.226Z,93.70
2017-10-17T21:04:38.298Z,93.70
2017-10-17T21:07:04.394Z,93.70
2017-10-17T21:09:30.558Z,93.70
2017-10-17T21:11:56.659Z,93.70
2017-10-17T21:14:22.738Z,93.80
2017-10-17T21:16:49.090Z,93.90
2017-10-17T21:19:15.185Z,94.00
2017-10-17T21:21:42.002Z,94.20
2017-10-17T21:24:08.846Z,94.20
2017-10-17T21:26:35.729Z,94.20
2017-10-17T21:29:01.825Z,94.20
2017-10-17T21:31:28.666Z,94.20
2017-10-17T21:33:54.738Z,94.20
2017-10-17T21:36:20.824Z,94.20
2017-10-17T21:38:46.958Z,94.20
2017-10-17T21:41:13.054Z,94.30
2017-10-17T21:43:39.907Z,94.50
2017-10-17T21:46:05.998Z,94.40
2017-10-17T21:48:32.078Z,94.30
2017-10-17T21:50:59.395Z,94.00
2017-10-17T21:53:26.186Z,94.20
2017-10-17T21:55:52.246Z,94.30
2017-10-17T21:58:19.035Z,94.40
2017-10-17T22:01:06.039Z,94.40
2017-10-17T22:03:32.133Z,94.40
2017-10-17T22:05:58.954Z,94.10
2017-10-17T22:08:25.787Z,94.10
2017-10-17T22:10:51.871Z,94.10
2017-10-17T22:13:17.951Z,94.10
2017-10-17T22:15:44.771Z,94.10
2017-10-17T22:18:10.902Z,94.00
2017-10-17T22:20:36.950Z,94.00
2017-10-17T22:23:02.990Z,94.10
2017-10-17T22:25:29.070Z,93.90
2017-10-17T22:27:55.211Z,94.00
2017-10-17T22:30:22.074Z,94.00
2017-10-17T22:32:48.147Z,94.00
2017-10-17T22:35:14.206Z,93.60
2017-10-17T22:37:40.342Z,93.70
2017-10-17T22:40:06.407Z,93.60
2017-10-17T22:42:32.502Z,93.70
2017-10-17T22:44:58.577Z,93.70
2017-10-17T22:47:24.640Z,93.60
2017-10-17T22:49:50.742Z,93.60
2017-10-17T22:52:17.565Z,93.50
2017-10-17T22:54:43.638Z,93.40
2017-10-17T22:57:09.710Z,93.60
2017-10-17T22:59:36.534Z,93.40
2017-10-17T23:02:02.620Z,93.40
2017-10-17T23:04:28.682Z,93.40
2017-10-17T23:06:55.558Z,93.40
2017-10-17T23:09:21.634Z,93.40
2017-10-17T23:11:47.677Z,93.40
2017-10-17T23:14:13.790Z,93.30
2017-10-17T23:16:52.213Z,93.50
2017-10-17T23:19:30.818Z,93.30
2017-10-17T23:21:56.886Z,93.30
2017-10-17T23:24:22.961Z,93.30
2017-10-17T23:26:49.036Z,93.50
2017-10-17T23:29:15.095Z,93.50
2017-10-17T23:31:42.989Z,93.50
2017-10-17T23:34:09.032Z,93.70
2017-10-17T23:36:35.091Z,93.80
2017-10-17T23:39:01.142Z,94.00
2017-10-17T23:41:27.210Z,94.20
2017-10-17T23:43:53.278Z,94.00
2017-10-17T23:46:19.371Z,94.10
2017-10-17T23:48:45.415Z,94.10
2017-10-17T23:51:11.463Z,94.10
2017-10-17T23:53:37.566Z,94.10
2017-10-17T23:56:03.640Z,94.60
2017-10-17T23:58:29.705Z,94.20
